Alamo, Nevada
Current Conditions -  °F | °C
As of 2:58 AM on Tuesday 21 Oct 2014 (Local Time) from KINS Reporting Station
Clear Clear  
Wind Chill: 62°   Ceiling: Unl
Heat Index: 62°   Visibility: 10mi
Dew Point: 36°   Wind: 2mph
Humidity: 38%   Direction: 350°N
Pressure: 29.88"   Gusts: NA
Location:  37.36°N, 115.16°W
Report Text: KINS 210958Z AUTO 35002KT 10SM CLR 17/02 A2988 RMK AO2 SLP076 T01650021
Loading
Personal Weather Stations






























Interactive Weather Map New forecast layout! Learn more

10-Day Weather Forecast

Advertisements
Track Severe Weather on mobile